Time;durP1;ratioP1;P1;durP2;ratioP2;P2;SDS_P1;SDS_P2;PMS_P1;PMS_P2;Temp;Humidity;BMP_temperature;BMP_pressure;BME280_temperature;BME280_humidity;BME280_pressure;Samples;Min_cycle;Max_cycle;Signal;HPM_P1;HPM_P2
2022/03/05 00:00:28;;;;;;;43.53;27.30;;;;;;;;;;5096671;28;20059;-67
2022/03/05 00:02:54;;;;;;;43.38;26.27;;;;;;;;;;5097345;28;20429;-67
2022/03/05 00:05:20;;;;;;;45.10;27.38;;;;;;;;;;5100218;28;20023;-68
2022/03/05 00:07:46;;;;;;;45.17;27.48;;;;;;;;;;5099707;28;20108;-67
2022/03/05 00:10:12;;;;;;;41.60;26.70;;;;;;;;;;5099181;28;20103;-68
2022/03/05 00:12:38;;;;;;;46.13;27.50;;;;;;;;;;5098483;28;20032;-68
2022/03/05 00:15:04;;;;;;;43.83;26.42;;;;;;;;;;5097122;28;20052;-68
2022/03/05 00:17:31;;;;;;;39.83;23.98;;;;;;;;;;5099047;28;20473;-67
2022/03/05 00:19:57;;;;;;;44.22;25.95;;;;;;;;;;5099125;28;20444;-67
2022/03/05 00:22:23;;;;;;;48.35;27.05;;;;;;;;;;5099675;28;20107;-67
2022/03/05 00:24:50;;;;;;;45.53;25.75;;;;;;;;;;5099083;28;20099;-67
2022/03/05 00:27:16;;;;;;;42.53;26.00;;;;;;;;;;5094921;28;20028;-68
2022/03/05 00:29:44;;;;;;;44.85;25.58;;;;;;;;;;5099179;28;20083;-67
2022/03/05 00:32:11;;;;;;;44.10;25.88;;;;;;;;;;5099371;28;20530;-67
2022/03/05 00:34:37;;;;;;;45.15;27.23;;;;;;;;;;5098987;28;20396;-67
2022/03/05 00:37:05;;;;;;;44.05;27.15;;;;;;;;;;5099334;28;20023;-68
2022/03/05 00:39:31;;;;;;;48.80;28.98;;;;;;;;;;5095666;28;20112;-68
2022/03/05 00:41:57;;;;;;;46.08;25.35;;;;;;;;;;5096205;28;20065;-67
2022/03/05 00:44:23;;;;;;;42.10;25.20;;;;;;;;;;5099222;28;20059;-67
2022/03/05 00:46:49;;;;;;;39.80;25.08;;;;;;;;;;5099330;28;20447;-67
2022/03/05 00:49:15;;;;;;;44.80;26.08;;;;;;;;;;5098799;28;20116;-68
2022/03/05 00:51:41;;;;;;;44.45;25.88;;;;;;;;;;5079630;28;20386;-67
2022/03/05 00:54:08;;;;;;;41.45;25.42;;;;;;;;;;5095538;28;20028;-68
2022/03/05 00:56:34;;;;;;;40.40;24.48;;;;;;;;;;5080263;28;20081;-68
2022/03/05 00:59:00;;;;;;;38.22;23.77;;;;;;;;;;5098768;28;20097;-68
2022/03/05 01:01:26;;;;;;;40.90;24.55;;;;;;;;;;5098385;28;20032;-68
2022/03/05 01:03:52;;;;;;;34.03;22.15;;;;;;;;;;5098526;28;20030;-68
2022/03/05 01:06:18;;;;;;;41.38;22.95;;;;;;;;;;5094597;28;20031;-68
2022/03/05 01:08:44;;;;;;;37.40;21.98;;;;;;;;;;5098149;28;20032;-68
2022/03/05 01:11:15;;;;;;;41.88;23.52;;;;;;;;;;5098601;28;20129;-68
2022/03/05 01:13:41;;;;;;;38.17;24.40;;;;;;;;;;5098004;28;20024;-67
2022/03/05 01:16:07;;;;;;;37.85;23.70;;;;;;;;;;5098433;28;20027;-68
2022/03/05 01:18:33;;;;;;;39.22;22.88;;;;;;;;;;5078255;28;20042;-68
2022/03/05 01:20:59;;;;;;;38.10;23.20;;;;;;;;;;5095983;28;20028;-68
2022/03/05 01:23:25;;;;;;;36.78;22.58;;;;;;;;;;5088324;28;20023;-68
2022/03/05 01:25:51;;;;;;;36.50;24.15;;;;;;;;;;5083525;28;20110;-68
2022/03/05 01:28:17;;;;;;;37.22;22.77;;;;;;;;;;5079512;28;20052;-67
2022/03/05 01:30:43;;;;;;;40.78;22.90;;;;;;;;;;5097344;28;20040;-68
2022/03/05 01:33:09;;;;;;;34.75;23.60;;;;;;;;;;5095063;28;20509;-68
2022/03/05 01:35:35;;;;;;;36.60;22.88;;;;;;;;;;5109067;28;20023;-68
2022/03/05 01:38:01;;;;;;;39.22;24.35;;;;;;;;;;5081384;28;20109;-67
2022/03/05 01:40:27;;;;;;;40.28;23.48;;;;;;;;;;5097702;28;20032;-68
2022/03/05 01:42:53;;;;;;;35.70;22.95;;;;;;;;;;5098047;28;20034;-68
2022/03/05 01:45:19;;;;;;;31.02;18.88;;;;;;;;;;5093499;28;20103;-67
2022/03/05 01:47:45;;;;;;;37.47;22.48;;;;;;;;;;5097107;28;20107;-68
2022/03/05 01:50:12;;;;;;;33.80;22.35;;;;;;;;;;5097559;28;20205;-68
2022/03/05 01:52:38;;;;;;;35.65;22.60;;;;;;;;;;5097631;28;20115;-68
2022/03/05 01:55:05;;;;;;;38.25;23.40;;;;;;;;;;5097634;28;20019;-68
2022/03/05 01:57:31;;;;;;;35.67;23.20;;;;;;;;;;5077177;28;20030;-68
2022/03/05 01:59:57;;;;;;;35.90;22.55;;;;;;;;;;5094189;28;20020;-68
2022/03/05 02:02:23;;;;;;;35.60;22.58;;;;;;;;;;5098019;28;20015;-68
2022/03/05 02:04:49;;;;;;;35.38;21.60;;;;;;;;;;5079926;28;20035;-68
2022/03/05 02:07:15;;;;;;;34.70;21.73;;;;;;;;;;5097370;28;20028;-68
2022/03/05 02:09:41;;;;;;;37.83;22.83;;;;;;;;;;5095551;28;20078;-68
2022/03/05 02:12:07;;;;;;;33.78;21.55;;;;;;;;;;5094465;28;20024;-68
2022/03/05 02:14:33;;;;;;;31.73;21.35;;;;;;;;;;5096393;28;20034;-67
2022/03/05 02:16:59;;;;;;;37.05;21.35;;;;;;;;;;5097325;28;20392;-68
2022/03/05 02:19:25;;;;;;;37.38;21.27;;;;;;;;;;5097324;28;20107;-68
2022/03/05 02:21:51;;;;;;;38.17;21.83;;;;;;;;;;5096622;28;20093;-68
2022/03/05 02:24:31;;;;;;;35.33;19.75;;;;;;;;;;5092641;28;20039;-67
2022/03/05 02:26:58;;;;;;;33.80;21.00;;;;;;;;;;5108412;28;20036;-68
2022/03/05 02:29:24;;;;;;;36.67;21.52;;;;;;;;;;5097166;28;20043;-68
2022/03/05 02:31:50;;;;;;;37.83;22.70;;;;;;;;;;5097203;28;20036;-68
2022/03/05 02:34:16;;;;;;;35.13;21.67;;;;;;;;;;5079100;28;20116;-68
2022/03/05 02:36:42;;;;;;;36.33;21.00;;;;;;;;;;5094895;28;20032;-68
2022/03/05 02:39:08;;;;;;;34.30;22.40;;;;;;;;;;5093842;28;20102;-68
2022/03/05 02:41:35;;;;;;;33.30;21.13;;;;;;;;;;5096533;28;20028;-68
2022/03/05 02:44:01;;;;;;;32.90;20.75;;;;;;;;;;5078831;28;20039;-68
2022/03/05 02:46:28;;;;;;;34.95;20.38;;;;;;;;;;5078939;28;20020;-68
2022/03/05 02:48:54;;;;;;;33.28;19.58;;;;;;;;;;5096808;28;20545;-68
2022/03/05 02:51:20;;;;;;;34.50;21.17;;;;;;;;;;5092128;28;20102;-67
2022/03/05 02:53:47;;;;;;;32.25;20.10;;;;;;;;;;5107918;28;20020;-68
2022/03/05 02:56:13;;;;;;;32.10;19.63;;;;;;;;;;5097229;28;20032;-68
2022/03/05 02:58:38;;;;;;;30.17;20.23;;;;;;;;;;5096098;28;20046;-68
2022/03/05 03:01:05;;;;;;;34.35;21.63;;;;;;;;;;5096646;28;20024;-68
2022/03/05 03:03:31;;;;;;;36.97;21.35;;;;;;;;;;5093394;28;20081;-68
2022/03/05 03:05:57;;;;;;;33.30;20.50;;;;;;;;;;5093710;28;20055;-68
2022/03/05 03:08:23;;;;;;;38.20;20.73;;;;;;;;;;5086978;28;20056;-69
2022/03/05 03:10:49;;;;;;;33.88;20.98;;;;;;;;;;5100389;28;20028;-68
2022/03/05 03:13:15;;;;;;;31.15;20.23;;;;;;;;;;5096566;28;20035;-68
2022/03/05 03:15:41;;;;;;;31.92;20.02;;;;;;;;;;5077367;28;20035;-68
2022/03/05 03:18:07;;;;;;;32.65;20.20;;;;;;;;;;5074592;28;20093;-68
2022/03/05 03:20:33;;;;;;;36.40;20.05;;;;;;;;;;5095922;28;20465;-68
2022/03/05 03:22:59;;;;;;;30.52;19.70;;;;;;;;;;5096517;28;20020;-68
2022/03/05 03:25:25;;;;;;;31.10;20.17;;;;;;;;;;5096942;28;20027;-67
2022/03/05 03:27:51;;;;;;;32.03;21.00;;;;;;;;;;5100449;28;20016;-68
2022/03/05 03:30:18;;;;;;;33.05;19.95;;;;;;;;;;5096850;28;20097;-68
2022/03/05 03:32:44;;;;;;;28.58;19.73;;;;;;;;;;5111234;28;20119;-68
2022/03/05 03:35:11;;;;;;;32.30;20.20;;;;;;;;;;5101251;28;20032;-68
2022/03/05 03:37:37;;;;;;;30.38;19.33;;;;;;;;;;5100056;28;20031;-68
2022/03/05 03:40:05;;;;;;;33.92;18.67;;;;;;;;;;5100489;28;20055;-68
2022/03/05 03:42:31;;;;;;;31.80;19.80;;;;;;;;;;5096900;28;20056;-68
2022/03/05 03:44:57;;;;;;;26.15;17.50;;;;;;;;;;5097834;28;20078;-68
2022/03/05 03:47:24;;;;;;;29.58;19.20;;;;;;;;;;5100070;28;20028;-68
2022/03/05 03:49:50;;;;;;;32.67;20.00;;;;;;;;;;5100162;28;20534;-68
2022/03/05 03:52:16;;;;;;;31.95;20.58;;;;;;;;;;5099875;28;20028;-68
2022/03/05 03:54:43;;;;;;;35.05;21.40;;;;;;;;;;5098306;28;20028;-68
2022/03/05 03:57:09;;;;;;;34.67;21.48;;;;;;;;;;5096875;28;20028;-67
2022/03/05 03:59:35;;;;;;;37.33;21.92;;;;;;;;;;5099514;28;20047;-67
2022/03/05 04:02:02;;;;;;;35.05;20.40;;;;;;;;;;5099095;28;20067;-68
2022/03/05 04:04:28;;;;;;;32.65;19.65;;;;;;;;;;5099566;28;20028;-68
2022/03/05 04:09:39;;;;;;;30.27;19.77;;;;;;;;;;5098202;28;20101;-68
2022/03/05 04:12:05;;;;;;;32.45;19.67;;;;;;;;;;5097223;28;20024;-68
2022/03/05 04:14:31;;;;;;;31.95;19.52;;;;;;;;;;5098717;28;20024;-68
2022/03/05 04:16:57;;;;;;;29.58;19.70;;;;;;;;;;5081810;28;20035;-68
2022/03/05 04:19:23;;;;;;;32.65;19.67;;;;;;;;;;5099381;28;20393;-68
2022/03/05 04:21:49;;;;;;;31.85;19.95;;;;;;;;;;5098607;28;20028;-68
2022/03/05 04:24:15;;;;;;;32.28;19.60;;;;;;;;;;5095629;28;20031;-67
2022/03/05 04:26:41;;;;;;;30.23;19.02;;;;;;;;;;5099224;28;20027;-68
2022/03/05 04:29:07;;;;;;;33.80;19.42;;;;;;;;;;5098722;28;20235;-68
2022/03/05 04:31:33;;;;;;;29.80;19.10;;;;;;;;;;5097659;28;20157;-68
2022/03/05 04:33:59;;;;;;;32.65;20.42;;;;;;;;;;5098161;28;20028;-67
2022/03/05 04:36:25;;;;;;;31.33;19.88;;;;;;;;;;5075751;28;20054;-68
2022/03/05 04:38:51;;;;;;;32.13;19.98;;;;;;;;;;5096843;28;20145;-68
2022/03/05 04:41:17;;;;;;;31.30;19.33;;;;;;;;;;5098321;28;20027;-67
2022/03/05 04:43:43;;;;;;;32.20;20.20;;;;;;;;;;5097620;28;20088;-68
2022/03/05 04:46:09;;;;;;;29.92;19.67;;;;;;;;;;5097572;28;20035;-67
2022/03/05 04:48:35;;;;;;;30.50;19.63;;;;;;;;;;5095104;28;20475;-67
2022/03/05 04:51:01;;;;;;;33.25;20.20;;;;;;;;;;5109821;28;20428;-68
2022/03/05 04:53:27;;;;;;;30.85;19.13;;;;;;;;;;5097667;28;20028;-67
2022/03/05 04:55:53;;;;;;;35.90;20.75;;;;;;;;;;5097955;28;20092;-67
2022/03/05 04:58:19;;;;;;;30.25;18.92;;;;;;;;;;5097151;28;20039;-67
2022/03/05 05:00:45;;;;;;;32.53;19.63;;;;;;;;;;5096323;28;20088;-68
2022/03/05 05:03:11;;;;;;;31.10;18.95;;;;;;;;;;5094396;28;20032;-67
2022/03/05 05:05:37;;;;;;;31.08;19.73;;;;;;;;;;5097318;28;20055;-67
2022/03/05 05:08:03;;;;;;;28.83;17.73;;;;;;;;;;5097340;28;20469;-67
2022/03/05 05:10:29;;;;;;;34.22;20.20;;;;;;;;;;5097279;28;20055;-67
2022/03/05 05:12:55;;;;;;;32.53;20.30;;;;;;;;;;5097536;28;20034;-67
2022/03/05 05:15:21;;;;;;;32.00;20.08;;;;;;;;;;5092951;28;20024;-67
2022/03/05 05:17:47;;;;;;;32.38;20.20;;;;;;;;;;5096513;28;20032;-67
2022/03/05 05:20:13;;;;;;;35.35;20.30;;;;;;;;;;5097554;28;20028;-67
2022/03/05 05:22:39;;;;;;;32.10;20.10;;;;;;;;;;5097044;28;20389;-68
2022/03/05 05:25:06;;;;;;;32.92;20.85;;;;;;;;;;5079461;28;20028;-67
2022/03/05 05:27:36;;;;;;;32.95;20.75;;;;;;;;;;5094179;28;20066;-67
2022/03/05 05:30:02;;;;;;;29.90;18.77;;;;;;;;;;5057788;28;1071203;-68
2022/03/05 05:32:28;;;;;;;29.58;18.77;;;;;;;;;;5087892;28;20024;-67
2022/03/05 05:34:54;;;;;;;28.63;17.00;;;;;;;;;;5101220;28;20038;-68
2022/03/05 05:37:20;;;;;;;31.42;18.23;;;;;;;;;;5098137;28;20473;-68
2022/03/05 05:39:46;;;;;;;31.98;19.58;;;;;;;;;;5096699;28;20039;-67
2022/03/05 05:42:12;;;;;;;32.13;19.15;;;;;;;;;;5094590;28;20032;-68
2022/03/05 05:44:38;;;;;;;29.25;18.90;;;;;;;;;;5096817;28;20143;-68
2022/03/05 05:47:04;;;;;;;28.33;17.35;;;;;;;;;;5079761;28;20063;-67
2022/03/05 05:49:30;;;;;;;24.45;14.82;;;;;;;;;;5097085;28;20036;-67
2022/03/05 05:51:57;;;;;;;25.83;16.30;;;;;;;;;;5097769;28;20068;-67
2022/03/05 05:54:23;;;;;;;25.52;16.45;;;;;;;;;;5093654;28;20028;-68
2022/03/05 05:56:49;;;;;;;32.17;20.27;;;;;;;;;;5096516;28;20024;-67
2022/03/05 05:59:15;;;;;;;33.78;20.10;;;;;;;;;;5097591;28;20078;-68
2022/03/05 06:01:41;;;;;;;30.45;19.98;;;;;;;;;;5097235;28;20024;-68
2022/03/05 06:04:08;;;;;;;33.35;20.30;;;;;;;;;;5097575;28;20020;-67
2022/03/05 06:06:34;;;;;;;30.83;19.45;;;;;;;;;;5094625;28;20015;-68
2022/03/05 06:09:00;;;;;;;27.80;18.88;;;;;;;;;;5109032;28;20028;-68
2022/03/05 06:11:26;;;;;;;31.45;17.88;;;;;;;;;;5097090;28;20032;-67
2022/03/05 06:13:52;;;;;;;29.55;17.88;;;;;;;;;;5079247;28;20024;-68
2022/03/05 06:16:18;;;;;;;28.40;17.98;;;;;;;;;;5097299;28;20107;-67
2022/03/05 06:18:44;;;;;;;30.67;18.23;;;;;;;;;;5096086;28;20119;-68
2022/03/05 06:21:10;;;;;;;31.10;19.17;;;;;;;;;;5093550;28;20035;-68
2022/03/05 06:23:37;;;;;;;25.45;15.52;;;;;;;;;;5096440;28;20032;-69
2022/03/05 06:26:04;;;;;;;25.77;16.17;;;;;;;;;;5097254;28;20054;-68
2022/03/05 06:28:30;;;;;;;19.85;12.80;;;;;;;;;;5096925;28;20085;-68
2022/03/05 06:30:56;;;;;;;20.27;13.63;;;;;;;;;;5096764;28;20361;-68
2022/03/05 06:33:22;;;;;;;23.58;15.20;;;;;;;;;;5092308;28;20019;-68
2022/03/05 06:35:48;;;;;;;23.88;15.32;;;;;;;;;;5096487;28;20032;-68
2022/03/05 06:38:14;;;;;;;20.77;13.73;;;;;;;;;;5097009;28;20131;-67
2022/03/05 06:40:40;;;;;;;25.48;15.85;;;;;;;;;;5096672;28;20477;-67
2022/03/05 06:43:06;;;;;;;24.70;15.90;;;;;;;;;;5096645;28;20030;-67
2022/03/05 06:45:32;;;;;;;22.33;13.93;;;;;;;;;;5094085;28;20392;-67
2022/03/05 06:47:58;;;;;;;20.27;12.10;;;;;;;;;;5108385;28;20020;-67
2022/03/05 06:50:25;;;;;;;24.23;14.80;;;;;;;;;;5097110;28;20471;-67
2022/03/05 06:52:51;;;;;;;21.42;11.80;;;;;;;;;;5096825;28;20465;-67
2022/03/05 06:55:17;;;;;;;22.20;13.45;;;;;;;;;;5096404;28;20081;-68
2022/03/05 06:57:44;;;;;;;21.20;13.23;;;;;;;;;;5094645;28;20022;-67
2022/03/05 07:00:11;;;;;;;18.13;12.02;;;;;;;;;;5093394;28;25884;-67
2022/03/05 07:02:37;;;;;;;20.45;12.38;;;;;;;;;;5096176;28;20020;-67
2022/03/05 07:05:03;;;;;;;19.50;10.32;;;;;;;;;;5096488;28;20089;-67
2022/03/05 07:07:29;;;;;;;17.13;10.50;;;;;;;;;;5096607;28;20024;-69
2022/03/05 07:09:55;;;;;;;17.90;11.20;;;;;;;;;;5095781;28;20111;-67
2022/03/05 07:12:21;;;;;;;19.20;10.52;;;;;;;;;;5092010;28;20472;-68
2022/03/05 07:14:49;;;;;;;19.00;11.18;;;;;;;;;;5107714;28;20095;-67
2022/03/05 07:17:18;;;;;;;16.70;10.63;;;;;;;;;;5096898;28;20102;-67
2022/03/05 07:19:44;;;;;;;18.92;10.88;;;;;;;;;;5096405;28;20051;-67
2022/03/05 07:22:10;;;;;;;19.90;12.18;;;;;;;;;;5078567;28;20094;-68
2022/03/05 07:24:37;;;;;;;17.02;10.05;;;;;;;;;;5093122;28;20031;-67
2022/03/05 07:27:03;;;;;;;17.02;10.10;;;;;;;;;;5108083;28;20106;-67
2022/03/05 07:29:29;;;;;;;14.93;9.93;;;;;;;;;;5095488;28;20047;-67
2022/03/05 07:31:55;;;;;;;15.77;9.70;;;;;;;;;;5096416;28;20114;-68
2022/03/05 07:34:21;;;;;;;14.65;8.52;;;;;;;;;;5096244;28;20465;-67
2022/03/05 07:36:47;;;;;;;13.93;8.13;;;;;;;;;;5077814;28;20027;-67
2022/03/05 07:39:13;;;;;;;15.18;9.55;;;;;;;;;;5092064;28;20396;-67
2022/03/05 07:41:40;;;;;;;16.08;9.05;;;;;;;;;;5095507;28;20051;-68
2022/03/05 07:44:06;;;;;;;17.90;9.52;;;;;;;;;;5096251;28;20060;-67
2022/03/05 07:46:33;;;;;;;15.40;9.35;;;;;;;;;;5078608;28;20072;-68
2022/03/05 07:48:59;;;;;;;15.23;9.20;;;;;;;;;;5095438;28;20496;-67
2022/03/05 07:51:26;;;;;;;14.00;9.05;;;;;;;;;;5092201;28;20548;-67
2022/03/05 07:53:52;;;;;;;13.70;8.23;;;;;;;;;;5094414;28;20028;-67
2022/03/05 07:56:19;;;;;;;17.80;9.65;;;;;;;;;;5078225;28;20118;-67
2022/03/05 07:58:45;;;;;;;13.80;7.88;;;;;;;;;;5096203;28;20040;-68
2022/03/05 08:01:11;;;;;;;16.23;9.73;;;;;;;;;;5095679;28;20031;-66
2022/03/05 08:03:37;;;;;;;15.38;8.07;;;;;;;;;;5093583;28;20024;-67
2022/03/05 08:06:03;;;;;;;14.07;9.25;;;;;;;;;;5075327;28;20590;-67
2022/03/05 08:08:29;;;;;;;14.00;9.30;;;;;;;;;;5095618;28;20066;-67
2022/03/05 08:10:55;;;;;;;12.68;7.75;;;;;;;;;;5078300;28;20039;-67
2022/03/05 08:13:21;;;;;;;16.70;8.70;;;;;;;;;;5081695;28;20541;-66
2022/03/05 08:15:48;;;;;;;14.52;9.25;;;;;;;;;;5098196;28;20032;-67
2022/03/05 08:18:13;;;;;;;15.93;9.60;;;;;;;;;;5095917;28;20040;-67
2022/03/05 08:20:39;;;;;;;17.02;9.18;;;;;;;;;;5080883;28;20432;-67
2022/03/05 08:23:05;;;;;;;15.90;7.80;;;;;;;;;;5081665;28;20036;-67
2022/03/05 08:25:31;;;;;;;15.98;9.77;;;;;;;;;;5099313;28;20099;-66
2022/03/05 08:27:57;;;;;;;18.42;9.68;;;;;;;;;;5081141;28;20027;-66
2022/03/05 08:30:24;;;;;;;16.13;9.75;;;;;;;;;;5095285;28;20032;-67
2022/03/05 08:32:50;;;;;;;16.58;10.40;;;;;;;;;;5098546;28;20102;-67
2022/03/05 08:35:16;;;;;;;15.02;10.00;;;;;;;;;;5099595;28;20496;-66
2022/03/05 08:37:42;;;;;;;18.13;10.02;;;;;;;;;;5098599;28;20035;-66
2022/03/05 08:40:09;;;;;;;17.40;9.45;;;;;;;;;;5099153;28;20565;-67
2022/03/05 08:42:35;;;;;;;14.90;10.27;;;;;;;;;;5096782;28;20032;-67
2022/03/05 08:45:02;;;;;;;16.13;10.02;;;;;;;;;;5096797;28;20028;-67
2022/03/05 08:47:29;;;;;;;15.77;9.35;;;;;;;;;;5098603;28;20020;-67
2022/03/05 08:49:55;;;;;;;14.60;8.98;;;;;;;;;;5098786;28;20028;-67
2022/03/05 08:52:21;;;;;;;16.15;10.43;;;;;;;;;;5098757;28;20032;-67
2022/03/05 08:54:46;;;;;;;15.90;10.15;;;;;;;;;;5097992;28;20085;-67
2022/03/05 08:57:12;;;;;;;16.38;10.60;;;;;;;;;;5095355;28;20028;-67
2022/03/05 08:59:39;;;;;;;17.75;10.07;;;;;;;;;;5097977;28;20115;-67
2022/03/05 09:02:05;;;;;;;17.35;10.40;;;;;;;;;;5080802;28;20507;-68
2022/03/05 09:04:32;;;;;;;12.98;8.77;;;;;;;;;;5098721;28;20024;-67
2022/03/05 09:06:58;;;;;;;18.40;10.23;;;;;;;;;;5098010;28;20132;-67
2022/03/05 09:09:24;;;;;;;17.95;11.00;;;;;;;;;;5094030;28;20019;-67
2022/03/05 09:11:50;;;;;;;15.50;10.80;;;;;;;;;;5097584;28;20520;-67
2022/03/05 09:14:16;;;;;;;14.82;9.07;;;;;;;;;;5098672;28;20056;-67
2022/03/05 09:16:42;;;;;;;15.63;9.38;;;;;;;;;;5098165;28;20106;-67
2022/03/05 09:19:08;;;;;;;19.35;9.30;;;;;;;;;;5098716;28;20058;-68
2022/03/05 09:21:35;;;;;;;14.98;8.93;;;;;;;;;;5094990;28;20079;-68
2022/03/05 09:24:01;;;;;;;15.43;9.10;;;;;;;;;;5108641;28;20445;-68
2022/03/05 09:26:27;;;;;;;12.27;7.68;;;;;;;;;;5098162;28;20031;-68
2022/03/05 09:28:53;;;;;;;16.23;9.40;;;;;;;;;;5098019;28;20052;-67
2022/03/05 09:31:19;;;;;;;15.48;9.48;;;;;;;;;;5097788;28;20033;-68
2022/03/05 09:33:45;;;;;;;13.65;7.20;;;;;;;;;;5096670;28;20035;-67
2022/03/05 09:36:12;;;;;;;18.17;11.32;;;;;;;;;;5094365;28;20027;-67
2022/03/05 09:38:38;;;;;;;19.65;11.20;;;;;;;;;;5097280;28;20102;-67
2022/03/05 09:41:05;;;;;;;15.55;9.43;;;;;;;;;;5097500;28;20024;-68
2022/03/05 09:43:31;;;;;;;16.15;10.20;;;;;;;;;;5097236;28;20024;-68
2022/03/05 09:46:00;;;;;;;16.88;11.05;;;;;;;;;;5097932;28;20027;-67
2022/03/05 09:48:27;;;;;;;14.23;9.73;;;;;;;;;;5093997;28;20032;-67
2022/03/05 09:50:53;;;;;;;20.98;11.70;;;;;;;;;;5095817;28;20024;-68
2022/03/05 09:53:20;;;;;;;15.80;7.70;;;;;;;;;;5097628;28;20427;-68
2022/03/05 09:55:48;;;;;;;12.90;7.65;;;;;;;;;;5097643;28;20024;-68
2022/03/05 09:58:14;;;;;;;14.20;9.63;;;;;;;;;;5097915;28;20040;-67
2022/03/05 10:00:40;;;;;;;16.98;8.73;;;;;;;;;;5094653;28;20380;-68
2022/03/05 10:03:07;;;;;;;17.63;9.38;;;;;;;;;;5109743;28;20472;-68
2022/03/05 10:05:36;;;;;;;16.45;10.93;;;;;;;;;;5096742;28;20028;-68
2022/03/05 10:08:08;;;;;;;12.80;8.43;;;;;;;;;;5079840;28;20035;-68
2022/03/05 10:10:46;;;;;;;15.57;8.18;;;;;;;;;;5079425;28;20031;-68
2022/03/05 10:13:12;;;;;;;;;;;;;;;;;;5097857;28;20388;-68
2022/03/05 10:15:38;;;;;;;12.40;7.65;;;;;;;;;;5094882;28;19962;-68
2022/03/05 10:18:04;;;;;;;16.60;10.57;;;;;;;;;;5094796;28;20039;-67
2022/03/05 10:20:34;;;;;;;13.95;8.63;;;;;;;;;;5096146;28;20065;-68
2022/03/05 10:23:00;;;;;;;14.93;9.52;;;;;;;;;;5096815;28;20028;-67
2022/03/05 10:25:35;;;;;;;13.20;8.20;;;;;;;;;;5097267;28;20100;-68
2022/03/05 10:28:05;;;;;;;19.15;11.55;;;;;;;;;;5096820;28;20526;-67
2022/03/05 10:30:32;;;;;;;14.68;8.55;;;;;;;;;;5094191;28;20389;-68
2022/03/05 10:32:58;;;;;;;18.20;10.23;;;;;;;;;;5094371;28;20469;-68
2022/03/05 10:35:25;;;;;;;14.48;9.00;;;;;;;;;;5095863;28;20103;-68
2022/03/05 10:37:52;;;;;;;15.93;8.20;;;;;;;;;;5097269;28;20107;-69
2022/03/05 10:40:25;;;;;;;12.93;7.97;;;;;;;;;;5097326;28;20024;-68
2022/03/05 10:42:51;;;;;;;21.75;9.70;;;;;;;;;;5108221;28;20494;-68
2022/03/05 10:45:18;;;;;;;18.35;10.95;;;;;;;;;;5092839;28;20024;-67
2022/03/05 10:47:49;;;;;;;12.25;6.68;;;;;;;;;;5095999;28;20012;-68
2022/03/05 10:50:15;;;;;;;13.02;7.70;;;;;;;;;;5096554;28;20016;-67
2022/03/05 10:52:45;;;;;;;16.67;10.60;;;;;;;;;;5096589;28;20030;-68
2022/03/05 10:55:15;;;;;;;13.90;10.07;;;;;;;;;;5078999;28;20103;-68
2022/03/05 10:57:55;;;;;;;21.55;8.82;;;;;;;;;;5094606;28;20077;-68
2022/03/05 11:00:21;;;;;;;13.32;8.40;;;;;;;;;;5092597;28;20047;-68
2022/03/05 11:02:47;;;;;;;13.13;8.57;;;;;;;;;;5107288;28;20020;-67
2022/03/05 11:05:14;;;;;;;13.10;8.75;;;;;;;;;;5096805;28;20537;-68
2022/03/05 11:07:40;;;;;;;17.30;10.85;;;;;;;;;;5096368;28;20481;-68
2022/03/05 11:10:06;;;;;;;16.25;10.00;;;;;;;;;;5096605;28;20023;-67
2022/03/05 11:12:33;;;;;;;12.70;8.32;;;;;;;;;;5093309;28;20035;-68
2022/03/05 11:14:59;;;;;;;18.70;11.27;;;;;;;;;;5094476;28;20107;-68
2022/03/05 11:17:25;;;;;;;17.15;9.25;;;;;;;;;;5096692;28;20493;-68
2022/03/05 11:19:51;;;;;;;16.92;10.48;;;;;;;;;;5095938;28;20032;-68
2022/03/05 11:22:18;;;;;;;16.33;10.65;;;;;;;;;;5096557;28;20032;-68
2022/03/05 11:24:44;;;;;;;15.38;10.10;;;;;;;;;;5095172;28;20023;-68
2022/03/05 11:27:16;;;;;;;17.45;9.40;;;;;;;;;;5075371;28;20028;-68
2022/03/05 11:29:58;;;;;;;16.63;8.90;;;;;;;;;;5077844;28;20049;-68
2022/03/05 11:32:51;;;;;;;15.82;9.05;;;;;;;;;;5105398;28;20035;-68
2022/03/05 11:35:20;;;;;;;20.95;12.02;;;;;;;;;;5093307;28;20115;-69
2022/03/05 11:37:47;;;;;;;17.30;9.93;;;;;;;;;;5096488;28;20024;-68
2022/03/05 11:40:31;;;;;;;19.85;12.50;;;;;;;;;;5096645;28;20019;-69
2022/03/05 11:43:15;;;;;;;13.82;9.70;;;;;;;;;;5096366;28;20027;-68
2022/03/05 11:45:46;;;;;;;13.93;8.27;;;;;;;;;;5093607;28;20032;-69
2022/03/05 11:48:25;;;;;;;16.95;10.48;;;;;;;;;;5096221;28;20028;-68
2022/03/05 11:50:51;;;;;;;16.02;8.85;;;;;;;;;;5090174;28;20115;-68
2022/03/05 11:53:18;;;;;;;13.63;8.23;;;;;;;;;;5109420;28;20157;-68
2022/03/05 11:55:45;;;;;;;17.50;10.48;;;;;;;;;;5105048;28;20052;-67
2022/03/05 11:58:14;;;;;;;18.30;10.93;;;;;;;;;;5081843;28;20031;-68
2022/03/05 12:00:51;;;;;;;14.50;9.45;;;;;;;;;;5080458;28;20496;-68
2022/03/05 12:03:38;;;;;;;16.05;9.55;;;;;;;;;;5095868;28;20427;-68
2022/03/05 12:06:04;;;;;;;15.40;9.73;;;;;;;;;;5093357;28;20556;-69
2022/03/05 12:08:30;;;;;;;17.63;10.77;;;;;;;;;;5099129;28;20024;-68
2022/03/05 12:11:12;;;;;;;18.02;12.18;;;;;;;;;;5099991;28;20028;-68
2022/03/05 12:13:45;;;;;;;13.65;8.48;;;;;;;;;;5082205;28;20046;-68
2022/03/05 12:16:22;;;;;;;14.88;9.90;;;;;;;;;;5099573;28;20034;-68
2022/03/05 12:18:49;;;;;;;15.93;9.80;;;;;;;;;;5098625;28;20031;-68
2022/03/05 12:21:19;;;;;;;21.77;12.20;;;;;;;;;;5095920;28;20473;-68
2022/03/05 12:23:45;;;;;;;18.15;11.40;;;;;;;;;;5098995;28;20035;-68
2022/03/05 12:26:12;;;;;;;14.93;9.13;;;;;;;;;;5099719;28;20024;-68
2022/03/05 12:28:42;;;;;;;14.88;7.72;;;;;;;;;;5099180;28;20085;-69
2022/03/05 12:31:20;;;;;;;15.85;10.40;;;;;;;;;;5081719;28;20019;-69
2022/03/05 12:33:47;;;;;;;;;;;;;;;;;;5098910;28;20098;-69
2022/03/05 12:36:17;;;;;;;17.42;11.52;;;;;;;;;;5096197;28;20352;-69
2022/03/05 12:38:43;;;;;;;15.77;9.07;;;;;;;;;;5098831;28;20099;-68
2022/03/05 12:41:09;;;;;;;16.77;9.90;;;;;;;;;;5099074;28;20472;-69
2022/03/05 12:43:35;;;;;;;18.75;11.95;;;;;;;;;;5081446;28;20070;-69
2022/03/05 12:46:02;;;;;;;16.70;9.27;;;;;;;;;;5081074;28;20361;-69
2022/03/05 12:48:28;;;;;;;19.63;11.48;;;;;;;;;;5078136;28;20028;-69
2022/03/05 12:50:54;;;;;;;18.45;11.35;;;;;;;;;;5097661;28;20047;-68
2022/03/05 12:53:21;;;;;;;19.25;12.45;;;;;;;;;;5099451;28;20099;-69
2022/03/05 12:55:51;;;;;;;17.33;10.90;;;;;;;;;;5080769;28;20050;-69
2022/03/05 12:58:17;;;;;;;17.35;10.18;;;;;;;;;;5098527;28;20523;-69
2022/03/05 13:00:45;;;;;;;14.32;8.93;;;;;;;;;;5097710;28;20012;-68
2022/03/05 13:03:12;;;;;;;14.53;9.47;;;;;;;;;;5095582;28;20063;-70
2022/03/05 13:05:38;;;;;;;17.50;10.88;;;;;;;;;;5079839;28;20275;-68
2022/03/05 13:08:04;;;;;;;15.95;10.30;;;;;;;;;;5098962;28;20032;-68
2022/03/05 13:10:30;;;;;;;17.15;10.80;;;;;;;;;;5080827;28;20488;-68
2022/03/05 13:12:57;;;;;;;16.63;10.23;;;;;;;;;;5098749;28;20051;-68
2022/03/05 13:15:25;;;;;;;16.83;10.73;;;;;;;;;;5095968;28;20072;-68
2022/03/05 13:17:51;;;;;;;17.90;11.55;;;;;;;;;;5109923;28;20046;-68
2022/03/05 13:20:18;;;;;;;15.05;9.60;;;;;;;;;;5098628;28;20036;-68
2022/03/05 13:22:45;;;;;;;15.15;9.30;;;;;;;;;;5080965;28;20103;-68
2022/03/05 13:25:12;;;;;;;16.55;11.43;;;;;;;;;;5098633;28;20485;-68
2022/03/05 13:27:38;;;;;;;11.70;7.50;;;;;;;;;;5077943;28;20032;-69
2022/03/05 13:30:09;;;;;;;17.10;11.70;;;;;;;;;;5077522;28;20327;-68
2022/03/05 13:32:42;;;;;;;16.90;11.00;;;;;;;;;;5097550;28;20060;-68
2022/03/05 13:35:08;;;;;;;14.90;9.65;;;;;;;;;;5098436;28;20031;-69
2022/03/05 13:37:40;;;;;;;16.58;11.25;;;;;;;;;;5098012;28;20508;-68
2022/03/05 13:40:08;;;;;;;14.10;9.55;;;;;;;;;;5080640;28;20067;-68
2022/03/05 13:42:34;;;;;;;16.00;10.85;;;;;;;;;;5076774;28;20388;-68
2022/03/05 13:45:06;;;;;;;16.77;9.85;;;;;;;;;;5077611;28;20099;-68
2022/03/05 13:47:32;;;;;;;16.17;10.18;;;;;;;;;;5097688;28;20035;-69
2022/03/05 13:50:04;;;;;;;17.52;10.15;;;;;;;;;;5097773;28;20393;-68
2022/03/05 13:52:33;;;;;;;18.85;10.48;;;;;;;;;;5097576;28;20031;-68
2022/03/05 13:55:10;;;;;;;17.25;11.05;;;;;;;;;;5095976;28;20024;-68
2022/03/05 13:57:39;;;;;;;15.30;9.75;;;;;;;;;;5091365;28;20074;-68
2022/03/05 14:00:20;;;;;;;13.25;8.98;;;;;;;;;;5077079;28;20040;-69
2022/03/05 14:02:46;;;;;;;14.68;9.85;;;;;;;;;;5096446;28;20118;-68
2022/03/05 14:05:21;;;;;;;17.13;10.52;;;;;;;;;;5097708;28;20074;-68
2022/03/05 14:07:48;;;;;;;14.77;9.00;;;;;;;;;;5097670;28;20066;-68
2022/03/05 14:10:15;;;;;;;13.25;9.07;;;;;;;;;;5079121;28;20380;-68
2022/03/05 14:13:00;;;;;;;15.02;7.97;;;;;;;;;;5077838;28;20020;-68
2022/03/05 14:15:33;;;;;;;17.98;10.35;;;;;;;;;;5075584;28;20358;-68
2022/03/05 14:18:07;;;;;;;16.52;10.13;;;;;;;;;;5094445;28;20028;-68
2022/03/05 14:20:43;;;;;;;17.35;11.07;;;;;;;;;;5096921;28;20511;-68
2022/03/05 14:23:12;;;;;;;16.70;10.13;;;;;;;;;;5096933;28;20028;-68